createdAt,value
2018-08-08T00:00:15.381Z,98325.66
2018-08-08T00:02:44.587Z,98321.85
2018-08-08T00:05:14.208Z,98319.94
2018-08-08T00:07:43.469Z,98319.22
2018-08-08T00:10:12.758Z,98312.36
2018-08-08T00:12:42.273Z,98313.41
2018-08-08T00:15:13.117Z,98310.78
2018-08-08T00:17:43.668Z,98310.59
2018-08-08T00:20:13.268Z,98308.27
2018-08-08T00:22:42.636Z,98321.81
2018-08-08T00:25:13.570Z,98326.59
2018-08-08T00:27:43.206Z,98316.65
2018-08-08T00:30:13.746Z,98325.95
2018-08-08T00:32:43.420Z,98321.12
2018-08-08T00:35:12.723Z,98317.53
2018-08-08T00:37:41.920Z,98312.11
2018-08-08T00:40:14.214Z,98308.93
2018-08-08T00:42:44.407Z,98304.02
2018-08-08T00:45:15.223Z,98296.43
2018-08-08T00:47:45.267Z,98291.80
2018-08-08T00:50:15.600Z,98292.90
2018-08-08T00:52:45.210Z,98289.97
2018-08-08T00:55:14.409Z,98290.19
2018-08-08T00:57:43.636Z,98292.77
2018-08-08T01:00:15.168Z,98294.82
2018-08-08T01:02:44.628Z,98296.43
2018-08-08T01:05:14.993Z,98291.81
2018-08-08T01:07:45.031Z,98285.28
2018-08-08T01:10:14.276Z,98287.64
2018-08-08T01:12:43.544Z,98291.84
2018-08-08T01:15:13.729Z,98299.87
2018-08-08T01:17:43.074Z,98293.00
2018-08-08T01:20:13.784Z,98288.87
2018-08-08T01:22:43.022Z,98288.25
2018-08-08T01:25:14.717Z,98295.82
2018-08-08T01:27:44.117Z,98294.65
2018-08-08T01:30:15.973Z,98287.08
2018-08-08T01:32:45.230Z,98288.21
2018-08-08T01:35:14.473Z,98283.34
2018-08-08T01:37:43.690Z,98286.53
2018-08-08T01:40:15.216Z,98283.83
2018-08-08T01:42:44.636Z,98275.38
2018-08-08T01:45:15.375Z,98275.62
2018-08-08T01:47:44.610Z,98278.09
2018-08-08T01:50:15.000Z,98270.66
2018-08-08T01:52:44.273Z,98266.94
2018-08-08T01:55:14.364Z,98271.32
2018-08-08T01:57:43.528Z,98269.71
2018-08-08T02:00:14.598Z,98263.09
2018-08-08T02:02:43.810Z,98268.00
2018-08-08T02:05:13.171Z,98270.48
2018-08-08T02:07:42.573Z,98267.52
2018-08-08T02:10:17.609Z,98273.41
2018-08-08T02:12:47.082Z,98270.74
2018-08-08T02:15:16.326Z,98272.67
2018-08-08T02:17:45.586Z,98268.03
2018-08-08T02:20:15.212Z,98269.39
2018-08-08T02:22:44.845Z,98268.36
2018-08-08T02:25:15.367Z,98265.98
2018-08-08T02:27:44.660Z,98270.04
2018-08-08T02:30:22.276Z,98268.69
2018-08-08T02:32:52.684Z,98264.52
2018-08-08T02:35:22.389Z,98265.32
2018-08-08T02:37:51.683Z,98270.77
2018-08-08T02:40:20.974Z,98271.14
2018-08-08T02:42:50.210Z,98268.06
2018-08-08T02:45:20.301Z,98263.92
2018-08-08T02:47:49.537Z,98260.16
2018-08-08T02:50:21.113Z,98260.97
2018-08-08T02:52:50.516Z,98259.36
2018-08-08T02:55:19.754Z,98259.36
2018-08-08T02:57:49.044Z,98261.58
2018-08-08T03:00:19.605Z,98263.19
2018-08-08T03:02:48.822Z,98255.92
2018-08-08T03:05:18.097Z,98257.11
2018-08-08T03:07:47.324Z,98263.94
2018-08-08T03:10:17.625Z,98261.53
2018-08-08T03:12:47.126Z,98267.41
2018-08-08T03:15:18.170Z,98269.09
2018-08-08T03:17:47.392Z,98260.64
2018-08-08T03:20:17.424Z,98260.12
2018-08-08T03:22:47.705Z,98267.50
2018-08-08T03:25:17.716Z,98270.04
2018-08-08T03:27:47.460Z,98265.31
2018-08-08T03:30:19.112Z,98273.52
2018-08-08T03:32:48.426Z,98277.70
2018-08-08T03:35:18.185Z,98279.60
2018-08-08T03:37:47.493Z,98279.37
2018-08-08T03:40:17.841Z,98274.81
2018-08-08T03:42:47.163Z,98276.80
2018-08-08T03:45:17.089Z,98286.19
2018-08-08T03:47:46.354Z,98289.13
2018-08-08T03:50:15.633Z,98286.93
2018-08-08T03:52:45.341Z,98288.77
2018-08-08T03:55:14.661Z,98287.90
2018-08-08T03:57:44.026Z,98282.75
2018-08-08T04:00:15.522Z,98286.19
2018-08-08T04:02:45.253Z,98286.06
2018-08-08T04:05:14.427Z,98288.99
2018-08-08T04:07:43.704Z,98282.50
2018-08-08T04:10:14.014Z,98287.97
2018-08-08T04:12:43.244Z,98295.75
2018-08-08T04:15:18.431Z,98298.96
2018-08-08T04:17:50.656Z,98301.22
2018-08-08T04:20:24.314Z,98302.14
2018-08-08T04:22:53.526Z,98305.23
2018-08-08T04:25:22.720Z,98301.66
2018-08-08T04:27:52.263Z,98302.63
2018-08-08T04:30:21.967Z,98301.46
2018-08-08T04:32:51.185Z,98303.97
2018-08-08T04:35:20.453Z,98300.35
2018-08-08T04:37:49.966Z,98308.26
2018-08-08T04:40:20.182Z,98301.13
2018-08-08T04:42:50.001Z,98294.56
2018-08-08T04:45:19.638Z,98295.66
2018-08-08T04:47:48.908Z,98301.89
2018-08-08T04:50:18.560Z,98304.77
2018-08-08T04:52:47.789Z,98304.62
2018-08-08T04:55:17.645Z,98306.12
2018-08-08T04:57:46.979Z,98308.79
2018-08-08T05:00:17.656Z,98309.12
2018-08-08T05:02:46.929Z,98305.53
2018-08-08T05:05:16.474Z,98310.06
2018-08-08T05:07:45.690Z,98317.23
2018-08-08T05:10:14.909Z,98325.06
2018-08-08T05:12:44.257Z,98320.59
2018-08-08T05:15:18.502Z,98333.39
2018-08-08T05:17:48.972Z,98331.25
2018-08-08T05:20:18.263Z,98325.09
2018-08-08T05:22:48.314Z,98324.05
2018-08-08T05:25:17.862Z,98327.75
2018-08-08T05:27:47.540Z,98327.25
2018-08-08T05:30:19.133Z,98328.70
2018-08-08T05:32:48.760Z,98334.59
2018-08-08T05:35:19.540Z,98333.41
2018-08-08T05:37:49.005Z,98330.14
2018-08-08T05:40:20.343Z,98334.12
2018-08-08T05:42:50.652Z,98336.52
2018-08-08T05:45:20.143Z,98341.66
2018-08-08T05:47:50.983Z,98341.27
2018-08-08T05:50:20.260Z,98344.11
2018-08-08T05:52:49.548Z,98348.03
2018-08-08T05:55:19.978Z,98347.19
2018-08-08T05:57:49.617Z,98345.92
2018-08-08T06:00:27.385Z,98343.08
2018-08-08T06:02:56.804Z,98351.41
2018-08-08T06:05:26.115Z,98348.95
2018-08-08T06:07:55.579Z,98348.22
2018-08-08T06:10:24.781Z,98350.66
2018-08-08T06:12:53.921Z,98351.47
2018-08-08T06:15:23.136Z,98352.63
2018-08-08T06:17:52.392Z,98357.34
2018-08-08T06:20:22.526Z,98349.90
2018-08-08T06:22:51.905Z,98346.40
2018-08-08T06:25:21.157Z,98345.11
2018-08-08T06:27:50.416Z,98352.78
2018-08-08T06:30:22.913Z,98349.16
2018-08-08T06:32:52.931Z,98345.37
2018-08-08T06:35:24.190Z,98353.39
2018-08-08T06:37:54.053Z,98355.23
2018-08-08T06:40:23.265Z,98364.67
2018-08-08T06:42:52.527Z,98353.91
2018-08-08T06:45:23.092Z,98350.05
2018-08-08T06:47:52.346Z,98353.94
2018-08-08T06:50:21.556Z,98356.30
2018-08-08T06:52:51.499Z,98358.03
2018-08-08T06:55:20.728Z,98363.69
2018-08-08T06:57:50.019Z,98364.13
2018-08-08T07:00:22.027Z,98364.36
2018-08-08T07:02:51.284Z,98364.84
2018-08-08T07:05:20.614Z,98367.56
2018-08-08T07:07:50.733Z,98364.16
2018-08-08T07:10:19.948Z,98359.59
2018-08-08T07:12:49.200Z,98358.00
2018-08-08T07:15:19.279Z,98354.59
2018-08-08T07:17:48.580Z,98356.87
2018-08-08T07:20:18.509Z,98371.17
2018-08-08T07:22:47.880Z,98369.89
2018-08-08T07:25:18.458Z,98365.41
2018-08-08T07:27:47.963Z,98368.70
2018-08-08T07:30:18.599Z,98368.09
2018-08-08T07:32:47.998Z,98371.22
2018-08-08T07:35:17.296Z,98372.41
2018-08-08T07:37:47.341Z,98372.23
2018-08-08T07:40:17.856Z,98365.14
2018-08-08T07:42:47.052Z,98372.14
2018-08-08T07:45:20.153Z,98377.18
2018-08-08T07:47:49.621Z,98372.71
2018-08-08T07:50:18.870Z,98375.44
2018-08-08T07:52:48.144Z,98373.25
2018-08-08T07:55:18.374Z,98374.81
2018-08-08T07:57:47.676Z,98381.38
2018-08-08T08:00:20.674Z,98374.01
2018-08-08T08:02:50.264Z,98370.08
2018-08-08T08:05:20.411Z,98376.02
2018-08-08T08:07:50.546Z,98378.40
2018-08-08T08:10:19.736Z,98375.51
2018-08-08T08:12:48.992Z,98372.27
2018-08-08T08:15:18.225Z,98375.52
2018-08-08T08:17:47.417Z,98372.60
2018-08-08T08:20:18.014Z,98377.58
2018-08-08T08:22:48.244Z,98381.02
2018-08-08T08:25:17.553Z,98380.59
2018-08-08T08:27:46.698Z,98376.83
2018-08-08T08:30:17.982Z,98375.28
2018-08-08T08:32:47.497Z,98374.39
2018-08-08T08:35:16.700Z,98376.31
2018-08-08T08:37:45.913Z,98381.91
2018-08-08T08:40:15.272Z,98377.53
2018-08-08T08:42:44.684Z,98383.38
2018-08-08T08:45:13.978Z,98384.16
2018-08-08T08:47:43.114Z,98387.72
2018-08-08T08:50:12.351Z,98383.11
2018-08-08T08:52:41.522Z,98387.83
2018-08-08T08:55:11.575Z,98394.71
2018-08-08T08:57:40.714Z,98389.22
2018-08-08T09:00:12.353Z,98391.22
2018-08-08T09:02:41.835Z,98386.47
2018-08-08T09:05:12.064Z,98384.06
2018-08-08T09:07:41.430Z,98385.23
2018-08-08T09:10:11.288Z,98380.17
2018-08-08T09:12:41.187Z,98383.81
2018-08-08T09:15:12.241Z,98385.41
2018-08-08T09:17:41.487Z,98385.23
2018-08-08T09:20:10.809Z,98378.50
2018-08-08T09:22:39.947Z,98380.92
2018-08-08T09:25:35.436Z,98379.63
2018-08-08T09:28:04.628Z,98373.86
2018-08-08T09:30:33.864Z,98370.22
2018-08-08T09:33:08.274Z,98370.37
2018-08-08T09:35:37.396Z,98368.28
2018-08-08T09:38:06.632Z,98365.19
2018-08-08T09:40:35.862Z,98369.31
2018-08-08T09:43:05.048Z,98364.84
2018-08-08T09:45:34.243Z,98365.66
2018-08-08T09:48:03.620Z,98371.34
2018-08-08T09:50:32.780Z,98360.74
2018-08-08T09:53:02.000Z,98365.48
2018-08-08T09:55:31.215Z,98357.23
2018-08-08T09:58:00.388Z,98357.87
2018-08-08T10:00:34.843Z,98355.11
2018-08-08T10:03:11.146Z,98362.20
2018-08-08T10:05:43.503Z,98366.70
2018-08-08T10:08:13.319Z,98371.41
2018-08-08T10:10:42.492Z,98365.00
2018-08-08T10:13:11.699Z,98366.97
2018-08-08T10:15:40.932Z,98371.05
2018-08-08T10:18:11.111Z,98363.69
2018-08-08T10:20:40.322Z,98367.59
2018-08-08T10:23:09.716Z,98367.54
2018-08-08T10:25:38.878Z,98367.83
2018-08-08T10:28:08.315Z,98358.93
2018-08-08T10:30:37.501Z,98365.10
2018-08-08T10:33:06.776Z,98359.94
2018-08-08T10:35:35.998Z,98361.03
2018-08-08T10:38:05.174Z,98356.56
2018-08-08T10:40:34.371Z,98362.91
2018-08-08T10:43:03.571Z,98354.93
2018-08-08T10:45:32.780Z,98353.77
2018-08-08T10:48:01.999Z,98347.52
2018-08-08T10:50:31.147Z,98343.67
2018-08-08T10:53:00.280Z,98343.09
2018-08-08T10:55:29.458Z,98340.56
2018-08-08T10:57:58.653Z,98339.64
2018-08-08T11:00:27.807Z,98336.88
2018-08-08T11:02:57.005Z,98329.67
2018-08-08T11:05:26.230Z,98335.34
2018-08-08T11:07:55.385Z,98335.34
2018-08-08T11:10:24.877Z,98337.73
2018-08-08T11:12:54.150Z,98337.48
2018-08-08T11:15:23.320Z,98338.82
2018-08-08T11:17:52.476Z,98338.65
2018-08-08T11:20:21.660Z,98334.78
2018-08-08T11:22:50.775Z,98334.56
2018-08-08T11:25:19.933Z,98331.40
2018-08-08T11:27:49.197Z,98325.30
2018-08-08T11:30:18.444Z,98333.82
2018-08-08T11:32:47.514Z,98326.52
2018-08-08T11:35:16.749Z,98333.08
2018-08-08T11:37:45.885Z,98330.30
2018-08-08T11:40:15.057Z,98339.11
2018-08-08T11:42:44.278Z,98330.71
2018-08-08T11:45:13.450Z,98332.55
2018-08-08T11:47:42.621Z,98325.78
2018-08-08T11:50:11.772Z,98336.05
2018-08-08T11:52:40.911Z,98336.47
2018-08-08T11:55:11.056Z,98336.95
2018-08-08T11:57:40.304Z,98329.24
2018-08-08T12:00:09.482Z,98330.67
2018-08-08T12:02:38.618Z,98333.59
2018-08-08T12:05:08.713Z,98342.41
2018-08-08T12:07:37.909Z,98344.30
2018-08-08T12:10:08.140Z,98339.59
2018-08-08T12:12:37.298Z,98335.76
2018-08-08T12:15:08.060Z,98340.20
2018-08-08T12:17:37.266Z,98331.53
2018-08-08T12:20:06.498Z,98331.17
2018-08-08T12:22:35.664Z,98335.25
2018-08-08T12:25:04.973Z,98334.85
2018-08-08T12:27:34.121Z,98329.03
2018-08-08T12:30:03.738Z,98328.39
2018-08-08T12:32:32.875Z,98322.19
2018-08-08T12:35:02.133Z,98322.78
2018-08-08T12:37:31.310Z,98325.45
2018-08-08T12:40:00.482Z,98313.16
2018-08-08T12:42:29.712Z,98318.91
2018-08-08T12:44:58.970Z,98307.08
2018-08-08T12:47:28.080Z,98310.09
2018-08-08T12:49:57.309Z,98304.05
2018-08-08T12:52:26.523Z,98310.80
2018-08-08T12:54:55.634Z,98301.33
2018-08-08T12:57:24.835Z,98295.17
2018-08-08T12:59:53.972Z,98291.12
2018-08-08T13:02:23.126Z,98290.66
2018-08-08T13:04:52.319Z,98289.67
2018-08-08T13:07:21.502Z,98284.80
2018-08-08T13:09:50.668Z,98293.73
2018-08-08T13:12:19.829Z,98282.62
2018-08-08T13:14:48.977Z,98283.86
2018-08-08T13:17:18.209Z,98282.73
2018-08-08T13:19:47.380Z,98271.52
2018-08-08T13:22:16.563Z,98279.11
2018-08-08T13:24:45.760Z,98267.95
2018-08-08T13:27:14.964Z,98270.67
2018-08-08T13:29:44.109Z,98267.40
2018-08-08T13:32:13.293Z,98271.26
2018-08-08T13:34:42.467Z,98262.73
2018-08-08T13:37:11.638Z,98253.51
2018-08-08T13:39:40.765Z,98258.76
2018-08-08T13:42:10.045Z,98248.53
2018-08-08T13:44:39.258Z,98250.25
2018-08-08T13:47:08.606Z,98249.84
2018-08-08T13:49:37.776Z,98248.06
2018-08-08T13:52:07.117Z,98253.16
2018-08-08T13:54:36.266Z,98250.98
2018-08-08T13:57:06.235Z,98244.14
2018-08-08T13:59:35.916Z,98238.63
2018-08-08T14:02:05.166Z,98232.41
2018-08-08T14:04:34.394Z,98232.98
2018-08-08T14:07:03.632Z,98226.76
2018-08-08T14:09:32.851Z,98239.61
2018-08-08T14:12:02.068Z,98238.52
2018-08-08T14:14:31.234Z,98235.20
2018-08-08T14:17:00.399Z,98235.45
2018-08-08T14:19:29.631Z,98240.03
2018-08-08T14:21:58.785Z,98232.72
2018-08-08T14:24:27.946Z,98226.91
2018-08-08T14:26:57.193Z,98231.23
2018-08-08T14:29:26.339Z,98223.81
2018-08-08T14:31:55.517Z,98219.64
2018-08-08T14:34:24.737Z,98227.30
2018-08-08T14:36:53.899Z,98229.03
2018-08-08T14:39:23.084Z,98233.31
2018-08-08T14:41:52.339Z,98225.17
2018-08-08T14:44:21.514Z,98224.92
2018-08-08T14:46:50.694Z,98226.80
2018-08-08T14:49:19.911Z,98228.69
2018-08-08T14:51:49.018Z,98232.95
2018-08-08T14:54:18.214Z,98231.47
2018-08-08T14:56:47.385Z,98236.83
2018-08-08T14:59:16.546Z,98235.48
2018-08-08T15:01:45.683Z,98236.33
2018-08-08T15:04:15.252Z,98236.69
2018-08-08T15:06:44.412Z,98229.09
2018-08-08T15:09:14.896Z,98221.97
2018-08-08T15:11:44.095Z,98218.51
2018-08-08T15:14:13.222Z,98219.14
2018-08-08T15:16:42.796Z,98228.06
2018-08-08T15:19:12.057Z,98220.34
2018-08-08T15:21:41.245Z,98220.23
2018-08-08T15:24:10.436Z,98210.97
2018-08-08T15:26:39.645Z,98212.85
2018-08-08T15:29:08.918Z,98213.53
2018-08-08T15:31:38.148Z,98219.19
2018-08-08T15:34:07.213Z,98221.66
2018-08-08T15:36:36.535Z,98213.88
2018-08-08T15:39:07.882Z,98224.03
2018-08-08T15:41:37.102Z,98224.19
2018-08-08T15:44:06.302Z,98225.41
2018-08-08T15:46:35.445Z,98227.73
2018-08-08T15:49:04.689Z,98228.38
2018-08-08T15:51:33.903Z,98236.86
2018-08-08T15:54:03.044Z,98238.44
2018-08-08T15:56:32.218Z,98243.20
2018-08-08T15:59:01.377Z,98238.30
2018-08-08T16:01:30.529Z,98232.17
2018-08-08T16:03:59.904Z,98233.64
2018-08-08T16:06:29.049Z,98241.32
2018-08-08T16:08:58.170Z,98245.08
2018-08-08T16:11:27.326Z,98243.23
2018-08-08T16:13:56.477Z,98243.46
2018-08-08T16:16:25.673Z,98245.89
2018-08-08T16:18:54.805Z,98246.09
2018-08-08T16:21:23.974Z,98241.28
2018-08-08T16:23:53.212Z,98242.80
2018-08-08T16:26:22.394Z,98250.72
2018-08-08T16:28:51.557Z,98257.70
2018-08-08T16:31:20.749Z,98249.84
2018-08-08T16:33:49.867Z,98246.52
2018-08-08T16:36:19.034Z,98251.52
2018-08-08T16:38:48.165Z,98253.09
2018-08-08T16:41:17.321Z,98253.09
2018-08-08T16:43:46.480Z,98256.00
2018-08-08T16:46:15.611Z,98252.31
2018-08-08T16:48:44.772Z,98253.13
2018-08-08T16:51:13.951Z,98250.78
2018-08-08T16:53:43.169Z,98250.22
2018-08-08T16:56:12.304Z,98251.27
2018-08-08T16:58:41.466Z,98247.92
2018-08-08T17:01:10.622Z,98251.73
2018-08-08T17:03:39.765Z,98254.72
2018-08-08T17:06:08.956Z,98249.20
2018-08-08T17:08:38.358Z,98249.66
2018-08-08T17:11:07.642Z,98251.33
2018-08-08T17:13:36.785Z,98250.56
2018-08-08T17:16:06.429Z,98256.75
2018-08-08T17:18:35.613Z,98255.02
2018-08-08T17:21:04.746Z,98253.67
2018-08-08T17:23:33.864Z,98258.45
2018-08-08T17:26:03.251Z,98255.17
2018-08-08T17:28:32.401Z,98259.97
2018-08-08T17:31:01.628Z,98260.41
2018-08-08T17:33:30.995Z,98261.66
2018-08-08T17:36:00.130Z,98264.08
2018-08-08T17:38:29.313Z,98262.95
2018-08-08T17:40:58.471Z,98265.77
2018-08-08T17:43:27.819Z,98264.42
2018-08-08T17:45:56.814Z,98261.84
2018-08-08T17:48:26.086Z,98260.70
2018-08-08T17:50:55.229Z,98268.80
2018-08-08T17:53:24.468Z,98269.00
2018-08-08T17:55:53.640Z,98271.77
2018-08-08T17:58:22.813Z,98272.55
2018-08-08T18:00:52.018Z,98276.46
2018-08-08T18:03:21.196Z,98274.11
2018-08-08T18:05:51.959Z,98284.31
2018-08-08T18:08:22.095Z,98281.95
2018-08-08T18:10:52.299Z,98292.95
2018-08-08T18:13:21.524Z,98292.56
2018-08-08T18:15:50.704Z,98288.34
2018-08-08T18:18:19.893Z,98283.59
2018-08-08T18:20:49.058Z,98290.06
2018-08-08T18:23:18.245Z,98298.69
2018-08-08T18:25:47.432Z,98300.44
2018-08-08T18:28:16.624Z,98310.42
2018-08-08T18:30:45.774Z,98316.65
2018-08-08T18:33:14.941Z,98312.09
2018-08-08T18:35:44.122Z,98304.34
2018-08-08T18:38:13.393Z,98309.97
2018-08-08T18:40:42.508Z,98315.22
2018-08-08T18:43:11.673Z,98321.96
2018-08-08T18:45:40.842Z,98329.55
2018-08-08T18:48:10.132Z,98335.38
2018-08-08T18:50:39.252Z,98341.98
2018-08-08T18:53:08.698Z,98346.82
2018-08-08T18:55:37.869Z,98358.12
2018-08-08T18:58:07.259Z,98366.14
2018-08-08T19:00:36.476Z,98375.13
2018-08-08T19:03:06.768Z,98377.66
2018-08-08T19:05:35.976Z,98379.42
2018-08-08T19:08:05.200Z,98383.72
2018-08-08T19:10:34.382Z,98386.91
2018-08-08T19:13:03.546Z,98396.19
2018-08-08T19:15:32.708Z,98395.09
2018-08-08T19:18:01.952Z,98392.39
2018-08-08T19:20:31.489Z,98401.09
2018-08-08T19:23:00.685Z,98404.17
2018-08-08T19:25:30.003Z,98406.09
2018-08-08T19:27:59.138Z,98409.33
2018-08-08T19:30:28.304Z,98404.74
2018-08-08T19:32:57.489Z,98406.63
2018-08-08T19:35:26.705Z,98404.80
2018-08-08T19:37:56.562Z,98407.28
2018-08-08T19:40:25.761Z,98407.96
2018-08-08T19:42:54.977Z,98413.83
2018-08-08T19:45:24.681Z,98416.16
2018-08-08T19:47:53.893Z,98421.87
2018-08-08T19:50:23.082Z,98428.19
2018-08-08T19:52:52.256Z,98432.20
2018-08-08T19:55:21.414Z,98434.85
2018-08-08T19:57:50.682Z,98434.31
2018-08-08T20:00:19.897Z,98443.22
2018-08-08T20:02:49.192Z,98446.06
2018-08-08T20:05:18.356Z,98453.77
2018-08-08T20:07:47.516Z,98465.19
2018-08-08T20:10:16.694Z,98465.56
2018-08-08T20:12:45.861Z,98468.42
2018-08-08T20:15:15.054Z,98471.89
2018-08-08T20:17:44.350Z,98479.89
2018-08-08T20:20:13.558Z,98480.39
2018-08-08T20:22:42.732Z,98484.50
2018-08-08T20:25:12.163Z,98488.62
2018-08-08T20:27:41.173Z,98493.60
2018-08-08T20:30:10.834Z,98499.35
2018-08-08T20:32:40.017Z,98499.95
2018-08-08T20:35:09.293Z,98499.35
2018-08-08T20:37:38.508Z,98498.58
2018-08-08T20:40:07.836Z,98506.34
2018-08-08T20:42:37.029Z,98513.51
2018-08-08T20:45:06.341Z,98513.73
2018-08-08T20:47:35.518Z,98514.87
2018-08-08T20:50:04.754Z,98518.12
2018-08-08T20:52:33.925Z,98523.77
2018-08-08T20:55:03.152Z,98521.14
2018-08-08T20:57:32.820Z,98515.96
2018-08-08T21:00:02.588Z,98512.07
2018-08-08T21:02:31.861Z,98515.96
2018-08-08T21:05:01.389Z,98506.59
2018-08-08T21:07:30.685Z,98494.97
2018-08-08T21:09:59.881Z,98490.44
2018-08-08T21:12:29.042Z,98484.23
2018-08-08T21:14:58.219Z,98477.41
2018-08-08T21:17:27.363Z,98478.41
2018-08-08T21:19:56.503Z,98471.22
2018-08-08T21:22:25.655Z,98478.94
2018-08-08T21:24:54.788Z,98473.41
2018-08-08T21:27:23.996Z,98481.25
2018-08-08T21:29:53.176Z,98471.16
2018-08-08T21:32:22.913Z,98465.44
2018-08-08T21:34:52.067Z,98469.70
2018-08-08T21:37:21.212Z,98475.39
2018-08-08T21:39:50.450Z,98473.80
2018-08-08T21:42:19.592Z,98476.90
2018-08-08T21:44:49.973Z,98480.45
2018-08-08T21:47:19.142Z,98487.84
2018-08-08T21:49:48.357Z,98491.00
2018-08-08T21:52:17.616Z,98492.41
2018-08-08T21:54:57.899Z,98500.68
2018-08-08T21:57:38.176Z,98498.04
2018-08-08T22:00:18.848Z,98497.17
2018-08-08T22:03:01.587Z,98494.82
2018-08-08T22:05:41.831Z,98499.37
2018-08-08T22:08:21.993Z,98504.77
2018-08-08T22:11:07.328Z,98510.51
2018-08-08T22:13:47.511Z,98511.55
2018-08-08T22:17:30.550Z,98516.91
2018-08-08T22:19:59.810Z,98529.14
2018-08-08T22:22:29.051Z,98537.80
2018-08-08T22:24:58.215Z,98544.66
2018-08-08T22:27:35.132Z,98547.19
2018-08-08T22:30:04.887Z,98554.46
2018-08-08T22:32:34.071Z,98556.61
2018-08-08T22:35:03.306Z,98556.93
2018-08-08T22:37:32.664Z,98560.77
2018-08-08T22:40:01.901Z,98556.56
2018-08-08T22:42:31.089Z,98573.84
2018-08-08T22:45:00.221Z,98576.28
2018-08-08T22:47:29.507Z,98579.59
2018-08-08T22:49:58.678Z,98588.76
2018-08-08T22:52:31.732Z,98587.69
2018-08-08T22:55:00.955Z,98584.72
2018-08-08T22:57:30.200Z,98587.70
2018-08-08T22:59:59.958Z,98582.98
2018-08-08T23:02:29.175Z,98586.80
2018-08-08T23:04:58.338Z,98584.91
2018-08-08T23:07:27.519Z,98594.66
2018-08-08T23:09:56.714Z,98587.41
2018-08-08T23:12:25.888Z,98585.06
2018-08-08T23:14:55.114Z,98589.03
2018-08-08T23:17:24.497Z,98588.98
2018-08-08T23:19:53.657Z,98591.25
2018-08-08T23:22:33.961Z,98598.78
2018-08-08T23:25:03.170Z,98594.01
2018-08-08T23:27:32.319Z,98589.03
2018-08-08T23:30:01.557Z,98588.23
2018-08-08T23:32:30.733Z,98586.54
2018-08-08T23:34:59.893Z,98586.66
2018-08-08T23:37:29.098Z,98593.03
2018-08-08T23:39:58.329Z,98584.72
2018-08-08T23:42:27.522Z,98588.70
2018-08-08T23:44:56.693Z,98591.63
2018-08-08T23:47:25.885Z,98594.34
2018-08-08T23:49:55.164Z,98595.94
2018-08-08T23:52:24.422Z,98599.13
2018-08-08T23:54:53.667Z,98605.14
2018-08-08T23:57:22.885Z,98608.89
2018-08-08T23:59:52.074Z,98604.11
